Time;durP1;ratioP1;P1;durP2;ratioP2;P2;SDS_P1;SDS_P2;PMS_P1;PMS_P2;Temp;Humidity;BMP_temperature;BMP_pressure;BME280_temperature;BME280_humidity;BME280_pressure;Samples;Min_cycle;Max_cycle;Signal;HPM_P1;HPM_P2
2023/11/17 00:00:18;;;;;;;1.33;1.23;;;22.50;67.80;;;;;;5051625;28;20946;-83
2023/11/17 00:02:45;;;;;;;1.70;1.60;;;22.40;68.60;;;;;;5052501;28;20437;-83
2023/11/17 00:05:12;;;;;;;1.80;1.53;;;22.40;67.80;;;;;;5053915;28;20442;-83
2023/11/17 00:07:39;;;;;;;2.13;1.50;;;22.40;67.80;;;;;;5054671;28;20437;-83
2023/11/17 00:10:06;;;;;;;1.30;1.20;;;22.40;67.80;;;;;;5054458;28;20441;-83
2023/11/17 00:12:33;;;;;;;1.87;1.50;;;22.40;67.90;;;;;;5052972;28;20500;-83
2023/11/17 00:15:02;;;;;;;1.40;1.30;;;22.40;67.80;;;;;;5055781;28;20868;-84
2023/11/17 00:17:28;;;;;;;1.90;1.70;;;22.30;67.70;;;;;;5054424;28;20445;-83
2023/11/17 00:19:56;;;;;;;1.43;1.33;;;22.30;67.70;;;;;;5052731;28;20473;-84
2023/11/17 00:22:23;;;;;;;1.40;1.30;;;22.30;67.60;;;;;;5053585;28;20489;-84
2023/11/17 00:24:50;;;;;;;2.70;1.80;;;22.30;67.80;;;;;;5057041;28;20457;-84
2023/11/17 00:27:17;;;;;;;1.40;1.30;;;22.30;67.80;;;;;;5056644;28;20441;-83
2023/11/17 00:29:44;;;;;;;1.20;1.10;;;22.30;67.90;;;;;;5057183;28;20456;-84
2023/11/17 00:32:12;;;;;;;1.40;1.10;;;22.30;68.00;;;;;;5057154;28;20444;-83
2023/11/17 00:34:39;;;;;;;1.40;1.30;;;22.30;67.90;;;;;;5057796;28;20909;-84
2023/11/17 00:37:06;;;;;;;1.60;1.50;;;22.30;67.90;;;;;;5057372;28;20436;-83
2023/11/17 00:39:34;;;;;;;1.60;1.50;;;22.30;67.90;;;;;;5057411;28;20437;-84
2023/11/17 00:42:01;;;;;;;1.57;1.47;;;22.20;67.80;;;;;;5056328;28;20542;-83
2023/11/17 00:44:29;;;;;;;2.37;1.97;;;22.20;67.90;;;;;;5056534;28;20433;-83
2023/11/17 00:46:56;;;;;;;1.43;1.33;;;22.20;68.00;;;;;;5056587;28;20773;-83
2023/11/17 00:49:25;;;;;;;1.50;1.40;;;22.30;68.20;;;;;;5056922;28;20929;-83
2023/11/17 00:51:52;;;;;;;1.60;1.50;;;22.20;68.00;;;;;;5057747;28;20445;-84
2023/11/17 00:54:25;;;;;;;1.30;1.20;;;22.20;68.00;;;;;;5056050;28;20461;-83
2023/11/17 00:56:54;;;;;;;1.50;1.40;;;22.20;68.10;;;;;;5056223;28;20449;-83
2023/11/17 00:59:21;;;;;;;1.60;1.50;;;22.10;68.00;;;;;;5056290;28;20536;-84
2023/11/17 01:01:48;;;;;;;2.03;1.83;;;22.10;68.10;;;;;;5056407;28;20496;-83
2023/11/17 01:04:15;;;;;;;1.70;1.60;;;22.10;68.10;;;;;;5056665;28;20437;-83
2023/11/17 01:06:43;;;;;;;1.93;1.70;;;22.10;68.20;;;;;;5057543;28;20441;-84
2023/11/17 01:09:10;;;;;;;1.60;1.40;;;22.10;68.10;;;;;;5058566;28;20433;-84
2023/11/17 01:11:39;;;;;;;1.40;1.30;;;22.10;68.20;;;;;;5055741;28;20438;-83
2023/11/17 01:14:08;;;;;;;2.07;1.50;;;22.10;68.20;;;;;;5057815;28;20442;-84
2023/11/17 01:16:35;;;;;;;1.80;1.40;;;22.10;68.40;;;;;;5056845;28;20789;-83
2023/11/17 01:19:02;;;;;;;1.63;1.10;;;22.10;68.30;;;;;;5056250;28;20811;-83
2023/11/17 01:21:29;;;;;;;1.60;1.50;;;22.10;68.30;;;;;;5055920;28;20571;-84
2023/11/17 01:23:57;;;;;;;1.50;1.40;;;22.10;68.30;;;;;;5056164;28;20454;-83
2023/11/17 01:26:24;;;;;;;1.87;1.40;;;22.10;68.40;;;;;;5055788;28;20951;-83
2023/11/17 01:28:51;;;;;;;1.37;1.20;;;22.10;68.50;;;;;;5055482;28;20480;-83
2023/11/17 01:31:19;;;;;;;1.50;1.40;;;22.10;68.50;;;;;;5055962;28;20811;-83
2023/11/17 01:33:48;;;;;;;1.20;1.10;;;22.10;68.40;;;;;;5055493;28;20437;-83
2023/11/17 01:36:15;;;;;;;1.70;1.60;;;22.10;68.30;;;;;;5056498;28;20441;-83
2023/11/17 01:38:42;;;;;;;1.40;1.17;;;22.10;68.40;;;;;;5055430;28;20434;-83
2023/11/17 01:41:10;;;;;;;1.23;1.13;;;22.10;68.50;;;;;;5055544;28;20543;-83
2023/11/17 01:43:37;;;;;;;2.43;1.63;;;22.10;68.20;;;;;;5055384;28;20488;-83
2023/11/17 01:46:04;;;;;;;1.40;1.30;;;22.10;68.20;;;;;;5055261;28;20464;-84
2023/11/17 01:48:33;;;;;;;1.77;1.33;;;22.20;68.20;;;;;;5056389;28;20446;-83
2023/11/17 01:51:01;;;;;;;1.30;1.07;;;22.20;68.20;;;;;;5055558;28;20442;-84
2023/11/17 01:53:28;;;;;;;1.40;1.30;;;22.10;68.00;;;;;;5055600;28;20454;-83
2023/11/17 01:55:55;;;;;;;1.10;0.90;;;22.10;68.20;;;;;;5056141;28;20442;-83
2023/11/17 01:58:24;;;;;;;1.70;1.30;;;22.10;68.10;;;;;;5055237;28;20532;-83
2023/11/17 02:00:52;;;;;;;2.03;1.10;;;22.20;68.00;;;;;;5054901;28;20803;-83
2023/11/17 02:03:19;;;;;;;2.50;1.50;;;22.10;68.10;;;;;;5055113;28;20536;-84
2023/11/17 02:05:47;;;;;;;1.93;1.43;;;22.20;68.10;;;;;;5055828;28;20433;-83
2023/11/17 02:08:24;;;;;;;1.50;1.40;;;22.20;68.10;;;;;;5055610;28;20859;-83
2023/11/17 02:11:01;;;;;;;1.90;1.70;;;22.20;68.10;;;;;;5054987;28;20430;-83
2023/11/17 02:13:36;;;;;;;1.20;1.10;;;22.20;68.00;;;;;;5054658;28;20437;-83
2023/11/17 02:16:10;;;;;;;1.83;1.10;;;22.20;68.00;;;;;;5055484;28;20444;-84
2023/11/17 02:18:40;;;;;;;1.40;1.27;;;22.20;68.00;;;;;;5054997;28;20931;-83
2023/11/17 02:21:08;;;;;;;1.30;1.10;;;22.20;67.90;;;;;;5054233;28;20476;-83
2023/11/17 02:23:36;;;;;;;1.40;1.30;;;22.20;68.00;;;;;;5054400;28;20449;-83
2023/11/17 02:26:17;;;;;;;1.70;1.60;;;22.20;68.00;;;;;;5055206;28;20441;-83
2023/11/17 02:28:59;;;;;;;1.40;1.30;;;22.20;68.00;;;;;;5054416;28;20425;-84
2023/11/17 02:31:32;;;;;;;1.30;1.17;;;22.20;67.90;;;;;;5054390;28;20433;-83
2023/11/17 02:34:03;;;;;;;1.33;1.23;;;22.20;67.90;;;;;;5054287;28;20440;-83
2023/11/17 02:36:32;;;;;;;1.83;1.10;;;22.20;67.90;;;;;;5054693;28;20445;-84
2023/11/17 02:39:12;;;;;;;1.30;1.20;;;22.20;68.00;;;;;;5054647;28;20518;-84
2023/11/17 02:41:42;;;;;;;2.10;1.63;;;22.20;67.80;;;;;;5054430;28;20473;-83
2023/11/17 02:44:12;;;;;;;1.30;1.10;;;22.20;67.70;;;;;;5055462;28;20777;-83
2023/11/17 02:46:44;;;;;;;1.50;1.33;;;22.30;68.00;;;;;;5054749;28;20495;-83
2023/11/17 02:49:22;;;;;;;2.00;1.30;;;22.20;67.70;;;;;;5054096;28;20444;-83
2023/11/17 02:51:51;;;;;;;1.30;1.20;;;22.20;67.70;;;;;;5054182;28;20958;-83
2023/11/17 02:54:21;;;;;;;1.40;1.30;;;22.20;67.80;;;;;;5054359;28;20484;-83
2023/11/17 02:56:48;;;;;;;1.20;1.10;;;22.30;67.90;;;;;;5054148;28;20437;-83
2023/11/17 02:59:17;;;;;;;2.10;1.10;;;22.20;67.80;;;;;;5053800;28;20433;-83
2023/11/17 03:01:46;;;;;;;1.20;1.10;;;22.20;67.80;;;;;;5053807;28;20492;-83
2023/11/17 03:04:15;;;;;;;1.50;1.20;;;22.20;67.80;;;;;;5055070;28;20459;-83
2023/11/17 03:06:46;;;;;;;1.33;1.10;;;22.20;67.90;;;;;;5054790;28;20445;-84
2023/11/17 03:09:14;;;;;;;1.23;1.10;;;22.20;68.70;;;;;;5054144;28;20436;-96
2023/11/17 03:11:42;;;;;;;1.30;1.13;;;22.20;67.70;;;;;;5053915;28;20450;-83
2023/11/17 03:14:09;;;;;;;1.97;1.37;;;22.20;67.70;;;;;;5053755;28;20464;-83
2023/11/17 03:16:36;;;;;;;1.40;1.30;;;22.20;67.70;;;;;;5055220;28;20871;-84
2023/11/17 03:19:10;;;;;;;1.40;1.20;;;22.20;67.50;;;;;;5053535;28;20438;-83
2023/11/17 03:21:40;;;;;;;1.43;1.33;;;22.20;67.50;;;;;;5054747;28;20525;-83
2023/11/17 03:24:14;;;;;;;1.40;1.20;;;22.20;67.60;;;;;;5054729;28;20464;-83
2023/11/17 03:26:45;;;;;;;2.47;2.13;;;22.20;67.60;;;;;;5055133;28;20794;-84
2023/11/17 03:29:14;;;;;;;1.63;1.53;;;22.20;67.60;;;;;;5054714;28;20445;-96
2023/11/17 03:31:47;;;;;;;1.30;1.17;;;22.20;67.60;;;;;;5054092;28;20448;-83
2023/11/17 03:34:16;;;;;;;1.73;1.20;;;22.20;67.50;;;;;;5053639;28;20531;-83
2023/11/17 03:36:43;;;;;;;1.30;1.20;;;22.20;67.50;;;;;;5054404;28;20441;-84
2023/11/17 03:39:12;;;;;;;2.00;1.30;;;22.20;67.40;;;;;;5053893;28;20448;-84
2023/11/17 03:41:40;;;;;;;1.50;1.40;;;22.30;67.60;;;;;;5053719;28;20477;-83
2023/11/17 03:44:07;;;;;;;1.93;1.37;;;22.30;67.60;;;;;;5053168;28;20430;-83
2023/11/17 03:46:35;;;;;;;1.30;1.10;;;22.20;67.40;;;;;;5053806;28;20468;-83
2023/11/17 03:49:02;;;;;;;1.63;1.47;;;22.20;67.40;;;;;;5053872;28;20475;-83
2023/11/17 03:51:31;;;;;;;1.57;1.47;;;22.20;67.30;;;;;;5054615;28;20448;-84
2023/11/17 03:53:57;;;;;;;1.73;1.63;;;22.20;67.30;;;;;;5053838;28;20976;-83
2023/11/17 03:56:24;;;;;;;1.60;1.20;;;22.30;67.50;;;;;;5054055;28;20440;-84
2023/11/17 03:58:51;;;;;;;1.40;1.30;;;22.30;67.40;;;;;;5053044;28;20939;-83
2023/11/17 04:01:18;;;;;;;1.67;1.37;;;22.20;67.40;;;;;;5058139;28;20433;-83
2023/11/17 04:03:46;;;;;;;1.73;1.60;;;22.20;67.20;;;;;;5058168;28;20520;-84
2023/11/17 04:06:12;;;;;;;1.60;1.50;;;22.20;67.30;;;;;;5057931;28;20473;-84
2023/11/17 04:08:41;;;;;;;1.50;1.40;;;22.20;67.40;;;;;;5057922;28;20433;-96
2023/11/17 04:11:13;;;;;;;2.33;1.20;;;22.20;67.30;;;;;;5057659;28;21003;-83
2023/11/17 04:13:41;;;;;;;1.60;1.50;;;22.20;67.40;;;;;;5056948;28;20463;-83
2023/11/17 04:16:08;;;;;;;1.30;1.20;;;22.20;67.30;;;;;;5057382;28;20485;-83
2023/11/17 04:18:35;;;;;;;1.43;1.33;;;22.20;67.40;;;;;;5058185;28;20440;-83
2023/11/17 04:21:02;;;;;;;1.73;1.63;;;22.20;67.20;;;;;;5056778;28;20473;-84
2023/11/17 04:23:29;;;;;;;1.80;1.50;;;22.20;67.20;;;;;;5056466;28;20500;-83
2023/11/17 04:25:56;;;;;;;3.30;2.00;;;22.20;67.30;;;;;;5058128;28;20449;-84
2023/11/17 04:28:23;;;;;;;2.90;2.10;;;22.20;67.30;;;;;;5057292;28;20444;-84
2023/11/17 04:30:50;;;;;;;2.00;1.63;;;22.20;67.40;;;;;;5057106;28;20449;-84
2023/11/17 04:33:17;;;;;;;2.80;1.93;;;22.30;67.60;;;;;;5057274;28;20924;-84
2023/11/17 04:35:43;;;;;;;2.43;1.97;;;22.20;67.40;;;;;;5058597;28;20433;-83
2023/11/17 04:38:10;;;;;;;1.80;1.50;;;22.20;68.30;;;;;;5057831;28;20433;-84
2023/11/17 04:40:37;;;;;;;1.90;1.70;;;22.20;67.30;;;;;;5058405;28;20437;-84
2023/11/17 04:43:06;;;;;;;1.50;1.40;;;22.20;67.40;;;;;;5058026;28;20538;-84
2023/11/17 04:45:36;;;;;;;1.83;1.73;;;22.20;67.50;;;;;;5057996;28;20445;-83
2023/11/17 04:48:05;;;;;;;2.27;2.03;;;22.20;67.40;;;;;;5057876;28;21008;-84
2023/11/17 04:50:32;;;;;;;1.63;1.53;;;22.20;67.50;;;;;;5057757;28;20490;-83
2023/11/17 04:52:59;;;;;;;2.07;1.87;;;22.20;67.40;;;;;;5057756;28;20437;-84
2023/11/17 04:55:25;;;;;;;2.37;2.10;;;22.30;67.60;;;;;;5059190;28;20476;-83
2023/11/17 04:57:51;;;;;;;1.60;1.50;;;22.20;67.30;;;;;;5057237;28;20433;-83
2023/11/17 05:00:20;;;;;;;1.97;1.83;;;22.20;67.30;;;;;;5056199;28;20191;-84
2023/11/17 05:02:47;;;;;;;1.90;1.70;;;22.20;68.10;;;;;;5055855;28;20485;-83
2023/11/17 05:05:14;;;;;;;1.50;1.40;;;22.30;67.30;;;;;;5056130;28;20441;-83
2023/11/17 05:07:43;;;;;;;2.47;2.20;;;22.30;67.30;;;;;;5056791;28;20444;-84
2023/11/17 05:10:11;;;;;;;1.93;1.73;;;22.30;67.40;;;;;;5055784;28;20933;-96
2023/11/17 05:12:37;;;;;;;2.17;1.67;;;22.30;67.30;;;;;;5055588;28;20449;-83
2023/11/17 05:15:07;;;;;;;2.13;2.03;;;22.30;67.20;;;;;;5056550;28;20420;-83
2023/11/17 05:17:43;;;;;;;1.60;1.50;;;22.30;67.20;;;;;;5059938;28;20433;-83
2023/11/17 05:20:11;;;;;;;2.00;1.80;;;22.40;67.30;;;;;;5053903;28;20468;-89
2023/11/17 05:22:38;;;;;;;2.37;2.17;;;22.30;67.10;;;;;;5054196;28;20511;-84
2023/11/17 05:25:06;;;;;;;2.20;2.00;;;22.30;67.10;;;;;;5056442;28;20433;-84
2023/11/17 05:27:33;;;;;;;2.00;1.80;;;22.40;66.80;;;;;;5056130;28;20453;-84
2023/11/17 05:30:00;;;;;;;2.70;1.50;;;22.30;66.80;;;;;;5056503;28;20448;-84
2023/11/17 05:32:27;;;;;;;2.43;2.23;;;22.40;67.00;;;;;;5055566;28;20449;-84
2023/11/17 05:34:56;;;;;;;2.73;2.03;;;22.40;67.10;;;;;;5056899;28;20528;-83
2023/11/17 05:37:23;;;;;;;2.20;2.00;;;22.40;66.90;;;;;;5056354;28;20495;-84
2023/11/17 05:39:50;;;;;;;2.53;2.33;;;22.40;66.50;;;;;;5056413;28;20530;-84
2023/11/17 05:42:17;;;;;;;2.67;2.47;;;22.40;66.90;;;;;;5055367;28;21006;-84
2023/11/17 05:44:44;;;;;;;3.40;3.10;;;22.40;66.80;;;;;;5057416;28;20437;-89
2023/11/17 05:47:11;;;;;;;3.70;3.40;;;22.40;66.70;;;;;;5057525;28;20460;-96
2023/11/17 05:49:42;;;;;;;2.90;2.23;;;22.40;64.60;;;;;;5056724;28;20524;-84
2023/11/17 05:52:11;;;;;;;2.63;2.43;;;22.40;66.10;;;;;;5056064;28;20429;-94
2023/11/17 05:54:43;;;;;;;2.67;2.47;;;22.40;66.50;;;;;;5057110;28;20449;-84
2023/11/17 05:57:10;;;;;;;2.90;2.63;;;22.40;66.60;;;;;;5057785;28;20429;-92
2023/11/17 05:59:37;;;;;;;2.60;2.40;;;22.40;66.80;;;;;;5058206;28;20924;-83
2023/11/17 06:02:04;;;;;;;2.87;2.57;;;22.40;66.80;;;;;;5060073;28;20970;-83
2023/11/17 06:04:32;;;;;;;3.27;2.50;;;22.40;66.80;;;;;;5056843;28;20453;-84
2023/11/17 06:06:59;;;;;;;2.20;2.00;;;22.40;67.00;;;;;;5056862;28;20469;-84
2023/11/17 06:09:28;;;;;;;2.93;2.43;;;22.40;66.90;;;;;;5055092;28;20445;-84
2023/11/17 06:11:55;;;;;;;2.67;2.20;;;22.40;66.80;;;;;;5054944;28;20443;-82
2023/11/17 06:14:22;;;;;;;3.70;3.03;;;22.40;66.80;;;;;;5054993;28;20468;-84
2023/11/17 06:16:53;;;;;;;2.60;2.40;;;22.50;67.10;;;;;;5055876;28;20532;-84
2023/11/17 06:19:20;;;;;;;2.40;2.20;;;22.50;66.80;;;;;;5055159;28;20447;-84
2023/11/17 06:21:47;;;;;;;2.37;2.17;;;22.50;66.80;;;;;;5034866;28;20967;-84
2023/11/17 06:24:14;;;;;;;3.50;2.83;;;22.50;67.10;;;;;;5037604;28;20536;-84
2023/11/17 06:26:43;;;;;;;3.00;2.80;;;22.50;67.00;;;;;;5037254;28;20942;-84
2023/11/17 06:29:10;;;;;;;2.50;2.30;;;22.50;66.90;;;;;;5039343;28;20477;-84
2023/11/17 06:31:36;;;;;;;3.60;2.87;;;22.50;66.50;;;;;;5037320;28;20438;-84
2023/11/17 06:34:04;;;;;;;3.10;2.60;;;22.50;66.80;;;;;;5038943;28;20445;-96
2023/11/17 06:36:32;;;;;;;2.90;2.70;;;22.50;66.90;;;;;;5044370;28;20445;-84
2023/11/17 06:38:58;;;;;;;3.00;2.67;;;22.50;66.90;;;;;;5124013;23;20486;-84
2023/11/17 06:41:25;;;;;;;3.27;2.93;;;22.50;67.20;;;;;;5098432;28;20444;-89
2023/11/17 06:43:53;;;;;;;3.67;2.67;;;22.50;66.90;;;;;;5095688;28;20312;-84
2023/11/17 06:46:23;;;;;;;7.50;3.33;;;22.50;66.40;;;;;;5114681;23;20463;-84
2023/11/17 06:48:50;;;;;;;2.77;2.57;;;22.50;66.80;;;;;;5119981;28;20446;-84
2023/11/17 06:51:17;;;;;;;4.33;3.37;;;22.50;66.80;;;;;;5115672;28;20439;-83
2023/11/17 06:53:44;;;;;;;2.83;2.30;;;22.50;67.00;;;;;;5107009;28;20463;-83
2023/11/17 06:56:11;;;;;;;3.80;3.20;;;22.50;67.00;;;;;;5094267;28;20439;-83
2023/11/17 06:58:38;;;;;;;3.47;3.17;;;22.50;67.10;;;;;;5096327;28;20442;-84
2023/11/17 07:01:06;;;;;;;2.80;2.53;;;22.60;66.90;;;;;;5095376;28;20436;-83
2023/11/17 07:03:33;;;;;;;4.67;2.80;;;22.60;67.10;;;;;;5094297;28;20475;-83
2023/11/17 07:06:00;;;;;;;2.97;2.67;;;22.60;66.90;;;;;;5099575;28;20527;-83
2023/11/17 07:08:27;;;;;;;4.43;3.00;;;22.60;66.90;;;;;;5094969;28;20446;-83
2023/11/17 07:10:55;;;;;;;3.87;3.57;;;22.70;66.80;;;;;;5094662;28;20440;-83
2023/11/17 07:13:22;;;;;;;3.13;2.83;;;22.60;66.80;;;;;;5096730;28;20444;-89
2023/11/17 07:15:49;;;;;;;3.10;2.70;;;22.60;66.80;;;;;;5093883;28;20788;-83
2023/11/17 07:18:17;;;;;;;3.53;2.83;;;22.60;66.80;;;;;;5094117;28;20432;-83
2023/11/17 07:20:44;;;;;;;4.90;3.60;;;22.60;66.70;;;;;;5096545;28;20434;-83
2023/11/17 07:23:11;;;;;;;4.10;3.37;;;22.60;66.80;;;;;;5096396;28;20491;-95
2023/11/17 07:25:41;;;;;;;3.47;3.00;;;22.60;66.80;;;;;;5088394;28;20461;-84
2023/11/17 07:28:08;;;;;;;3.23;2.90;;;22.60;66.70;;;;;;5093722;28;21084;-83
2023/11/17 07:30:35;;;;;;;5.63;3.80;;;22.60;66.70;;;;;;5093946;28;20471;-84
2023/11/17 07:33:02;;;;;;;4.47;3.27;;;22.60;66.70;;;;;;5093827;28;20431;-82
2023/11/17 07:35:30;;;;;;;3.43;3.13;;;22.60;66.80;;;;;;5095567;28;20535;-83
2023/11/17 07:37:57;;;;;;;3.53;3.23;;;22.60;67.00;;;;;;5101164;28;20447;-83
2023/11/17 07:40:24;;;;;;;6.77;3.80;;;22.60;67.00;;;;;;5097168;28;20450;-84
2023/11/17 07:42:51;;;;;;;3.97;3.63;;;22.60;66.70;;;;;;5092742;28;20505;-85
2023/11/17 07:45:18;;;;;;;4.90;4.00;;;22.60;66.00;;;;;;5090566;28;20923;-85
2023/11/17 07:47:44;;;;;;;5.87;4.03;;;22.50;64.20;;;;;;5090541;28;20923;-82
2023/11/17 07:50:13;;;;;;;5.17;3.70;;;22.50;65.30;;;;;;5093280;28;20465;-83
2023/11/17 07:52:43;;;;;;;5.10;4.10;;;22.50;65.70;;;;;;5100505;22;20838;-82
2023/11/17 07:55:13;;;;;;;5.57;4.00;;;22.60;65.90;;;;;;5090708;22;20968;-82
2023/11/17 07:57:41;;;;;;;4.30;3.43;;;22.60;65.90;;;;;;5071171;28;20439;-82
2023/11/17 08:00:17;;;;;;;4.47;3.30;;;22.60;65.70;;;;;;5072351;28;20860;-83
2023/11/17 08:02:44;;;;;;;4.80;3.93;;;22.60;65.50;;;;;;5074358;28;20478;-83
2023/11/17 08:05:11;;;;;;;3.80;3.30;;;22.60;65.50;;;;;;5072835;28;20448;-82
2023/11/17 08:07:38;;;;;;;4.47;4.00;;;22.60;65.50;;;;;;5074457;28;20417;-83
2023/11/17 08:10:09;;;;;;;4.20;3.80;;;22.60;65.30;;;;;;5073743;28;20441;-83
2023/11/17 08:12:36;;;;;;;3.60;3.30;;;22.60;65.30;;;;;;5072062;28;20971;-82
2023/11/17 08:15:04;;;;;;;3.43;3.13;;;22.70;65.40;;;;;;5073573;28;20502;-83
2023/11/17 08:17:31;;;;;;;6.10;3.60;;;22.60;65.10;;;;;;5071384;28;20969;-82
2023/11/17 08:19:59;;;;;;;3.97;3.10;;;22.70;65.20;;;;;;5073221;28;20445;-82
2023/11/17 08:22:29;;;;;;;3.80;3.50;;;22.70;65.10;;;;;;5073127;28;20463;-82
2023/11/17 08:24:56;;;;;;;5.30;3.60;;;22.70;65.10;;;;;;5076095;28;20519;-82
2023/11/17 08:27:24;;;;;;;4.63;4.23;;;22.70;65.10;;;;;;5072736;28;20432;-82
2023/11/17 08:29:51;;;;;;;3.67;3.27;;;22.70;65.10;;;;;;5075667;28;20451;-82
2023/11/17 08:32:18;;;;;;;4.33;3.40;;;22.70;64.90;;;;;;5072705;28;20468;-83
2023/11/17 08:34:46;;;;;;;4.90;4.03;;;22.70;64.90;;;;;;5074340;28;20412;-82
2023/11/17 08:37:13;;;;;;;4.20;3.40;;;22.70;64.70;;;;;;5081551;22;20484;-83
2023/11/17 08:39:41;;;;;;;3.77;3.43;;;22.70;64.70;;;;;;5072708;28;20957;-82
2023/11/17 08:42:08;;;;;;;4.63;3.83;;;22.70;64.60;;;;;;5073382;28;20440;-82
2023/11/17 08:44:36;;;;;;;4.57;4.17;;;22.70;64.70;;;;;;5074356;28;20537;-83
2023/11/17 08:47:05;;;;;;;4.10;3.60;;;22.70;64.70;;;;;;5078516;28;20588;-83
2023/11/17 08:49:36;;;;;;;4.73;3.40;;;22.70;64.50;;;;;;5079589;28;20539;-82
2023/11/17 08:52:04;;;;;;;4.67;4.10;;;22.80;64.80;;;;;;5088050;22;20492;-83
2023/11/17 08:54:31;;;;;;;4.30;3.90;;;22.70;64.80;;;;;;5080875;28;20443;-82
2023/11/17 08:56:58;;;;;;;5.50;3.83;;;22.70;64.70;;;;;;5077179;28;20787;-82
2023/11/17 08:59:25;;;;;;;4.03;3.70;;;22.70;64.70;;;;;;5078311;28;20494;-82
2023/11/17 09:01:54;;;;;;;3.80;3.50;;;22.70;64.60;;;;;;5076731;28;20435;-83
2023/11/17 09:04:21;;;;;;;4.67;3.47;;;22.70;64.60;;;;;;5077306;28;20507;-82
2023/11/17 09:06:48;;;;;;;3.63;3.33;;;22.70;64.60;;;;;;5075994;28;20440;-82
2023/11/17 09:09:17;;;;;;;4.40;3.90;;;22.70;64.50;;;;;;5076540;28;20440;-83
2023/11/17 09:11:47;;;;;;;4.80;4.40;;;22.70;64.60;;;;;;5076137;28;20444;-83
2023/11/17 09:14:14;;;;;;;4.80;4.17;;;22.70;64.60;;;;;;5077205;28;20464;-82
2023/11/17 09:16:40;;;;;;;3.50;3.30;;;22.70;64.40;;;;;;5077851;28;20445;-82
2023/11/17 09:19:09;;;;;;;5.10;4.63;;;22.70;64.40;;;;;;5075778;28;20433;-83
2023/11/17 09:21:35;;;;;;;4.40;4.00;;;22.70;64.40;;;;;;5078346;28;20535;-83
2023/11/17 09:24:02;;;;;;;4.07;3.73;;;22.70;64.40;;;;;;5075620;28;20495;-82
2023/11/17 09:26:29;;;;;;;4.33;3.67;;;22.70;64.40;;;;;;5078942;28;20413;-83
2023/11/17 09:28:56;;;;;;;4.83;4.37;;;22.70;64.30;;;;;;5086222;22;20484;-83
2023/11/17 09:31:22;;;;;;;4.80;4.30;;;22.70;64.40;;;;;;5077080;28;20490;-83
2023/11/17 09:33:49;;;;;;;4.17;3.83;;;22.70;64.40;;;;;;5076437;28;20440;-82
2023/11/17 09:36:17;;;;;;;5.90;4.10;;;22.70;64.30;;;;;;5075479;28;20443;-82
2023/11/17 09:38:44;;;;;;;3.63;3.30;;;22.70;64.40;;;;;;5077292;28;20439;-82
2023/11/17 09:41:11;;;;;;;4.40;4.00;;;22.70;64.30;;;;;;5075368;28;20432;-82
2023/11/17 09:43:39;;;;;;;4.73;4.23;;;22.70;64.30;;;;;;5076214;28;20486;-83
2023/11/17 09:46:10;;;;;;;4.33;3.93;;;22.80;64.40;;;;;;5078221;28;20444;-83
2023/11/17 09:48:38;;;;;;;7.03;3.80;;;22.70;64.20;;;;;;5076637;28;20462;-82
2023/11/17 09:51:06;;;;;;;4.50;4.10;;;22.70;64.30;;;;;;5078357;28;20516;-82
2023/11/17 09:53:37;;;;;;;5.13;4.23;;;22.80;64.40;;;;;;5076407;28;20522;-83
2023/11/17 09:56:08;;;;;;;4.50;4.10;;;22.80;64.40;;;;;;5079185;28;20448;-83
2023/11/17 09:58:36;;;;;;;4.27;3.87;;;22.80;64.40;;;;;;5076386;28;20445;-82
2023/11/17 10:01:03;;;;;;;3.97;3.67;;;22.90;64.40;;;;;;5076764;28;20433;-82
2023/11/17 10:03:30;;;;;;;4.30;3.90;;;22.70;64.20;;;;;;5075359;28;20447;-82
2023/11/17 10:05:59;;;;;;;4.97;3.70;;;22.70;64.10;;;;;;5077609;28;20950;-82
2023/11/17 10:08:28;;;;;;;4.20;3.80;;;22.70;64.20;;;;;;5075332;28;20512;-82
2023/11/17 10:10:57;;;;;;;4.87;4.47;;;22.70;64.20;;;;;;5074928;28;20893;-82
2023/11/17 10:13:25;;;;;;;5.47;4.50;;;22.70;64.20;;;;;;5075020;28;20430;-82
2023/11/17 10:15:52;;;;;;;4.00;3.70;;;22.70;65.00;;;;;;5076858;28;20432;-82
2023/11/17 10:18:21;;;;;;;4.27;3.90;;;22.70;64.10;;;;;;5074671;28;20435;-82
2023/11/17 10:20:48;;;;;;;4.30;3.67;;;22.70;64.10;;;;;;5075431;28;20428;-82
2023/11/17 10:23:15;;;;;;;4.30;3.90;;;22.70;64.10;;;;;;5076638;28;20456;-82
2023/11/17 10:25:43;;;;;;;3.93;3.60;;;22.70;64.00;;;;;;5074314;28;20488;-83
2023/11/17 10:28:14;;;;;;;4.20;3.80;;;22.70;64.20;;;;;;5074371;28;20775;-82
2023/11/17 10:30:44;;;;;;;4.50;4.10;;;22.70;63.90;;;;;;5077816;28;20485;-83
2023/11/17 10:33:20;;;;;;;3.90;3.30;;;22.70;63.90;;;;;;5075025;28;20436;-82
2023/11/17 10:36:01;;;;;;;4.80;4.30;;;22.70;63.90;;;;;;5078097;28;20470;-83
2023/11/17 10:38:29;;;;;;;4.40;4.00;;;22.70;63.70;;;;;;5074507;28;20534;-87
2023/11/17 10:41:10;;;;;;;4.73;4.23;;;22.70;63.00;;;;;;5074410;28;20570;-87
2023/11/17 10:43:48;;;;;;;5.30;4.20;;;22.60;62.60;;;;;;5074321;28;20463;-87
2023/11/17 10:46:19;;;;;;;4.10;3.80;;;22.60;62.80;;;;;;5073925;28;20444;-87
2023/11/17 10:48:46;;;;;;;4.30;3.90;;;22.50;63.00;;;;;;5074132;28;20540;-87
2023/11/17 10:51:16;;;;;;;4.40;4.00;;;22.50;63.20;;;;;;5074039;28;20436;-87
2023/11/17 10:53:43;;;;;;;8.10;4.97;;;22.40;63.20;;;;;;5073731;28;20975;-87
2023/11/17 10:56:24;;;;;;;3.70;3.40;;;22.40;63.50;;;;;;5074128;28;20440;-83
2023/11/17 10:58:55;;;;;;;5.17;4.70;;;22.40;63.80;;;;;;5073308;28;20436;-83
2023/11/17 11:01:22;;;;;;;4.63;4.13;;;22.40;63.80;;;;;;5074827;28;20447;-81
2023/11/17 11:06:15;;;;;;;12.03;4.43;;;22.60;65.00;;;;;;5080802;22;20512;-83
2023/11/17 11:08:53;;;;;;;9.07;4.53;;;22.60;64.90;;;;;;5075406;28;20200;-83
2023/11/17 11:11:23;;;;;;;8.97;4.07;;;22.70;65.00;;;;;;5076453;28;21002;-83
2023/11/17 11:16:24;;;;;;;6.10;4.20;;;22.70;65.00;;;;;;5032912;28;21008;-83
2023/11/17 11:18:53;;;;;;;6.53;4.10;;;22.80;64.70;;;;;;5072121;22;20487;-83
2023/11/17 11:21:21;;;;;;;4.60;3.93;;;22.80;65.30;;;;;;5072326;28;20534;-83
2023/11/17 11:23:49;;;;;;;4.17;3.60;;;22.80;65.30;;;;;;5055482;28;20852;-83
2023/11/17 11:26:17;;;;;;;6.10;4.10;;;22.80;65.30;;;;;;5053719;28;20438;-87
2023/11/17 11:28:44;;;;;;;5.00;3.77;;;22.80;65.30;;;;;;5052034;28;20445;-84
2023/11/17 11:31:12;;;;;;;4.93;4.47;;;22.90;65.30;;;;;;5053307;28;20461;-84
2023/11/17 11:33:41;;;;;;;4.90;3.50;;;22.90;65.60;;;;;;5054297;28;20441;-83
2023/11/17 11:36:10;;;;;;;4.77;4.00;;;22.90;65.40;;;;;;5064761;28;20452;-96
2023/11/17 11:38:38;;;;;;;3.83;3.43;;;22.90;64.80;;;;;;5066777;28;20433;-95
2023/11/17 11:41:11;;;;;;;4.63;3.57;;;22.90;65.20;;;;;;5065023;28;20430;-96
2023/11/17 11:43:38;;;;;;;4.20;3.33;;;22.90;65.30;;;;;;5038577;28;20498;-90
2023/11/17 11:46:07;;;;;;;5.37;3.73;;;22.90;65.40;;;;;;5045659;28;20843;-96
2023/11/17 14:29:55;;;;;;;3.60;3.27;;;23.20;65.40;;;;;;5194759;22;20497;-80
2023/11/17 14:32:23;;;;;;;4.37;3.17;;;23.30;65.50;;;;;;5051943;28;20458;-83
2023/11/17 14:34:51;;;;;;;7.10;2.33;;;23.30;65.40;;;;;;5047943;23;20563;-82
2023/11/17 14:37:19;;;;;;;5.00;2.60;;;23.30;65.50;;;;;;5025327;28;20530;-82
2023/11/17 14:39:46;;;;;;;3.23;2.70;;;23.40;65.40;;;;;;5028185;28;20443;-83
2023/11/17 14:42:13;;;;;;;3.60;2.23;;;23.40;65.40;;;;;;5027669;28;20454;-81
2023/11/17 14:44:40;;;;;;;4.30;3.20;;;23.40;65.50;;;;;;5022772;28;20491;-82
2023/11/17 14:47:08;;;;;;;3.97;2.60;;;23.40;65.60;;;;;;5016317;28;20497;-82
2023/11/17 14:49:35;;;;;;;5.63;3.00;;;23.40;65.40;;;;;;5019514;28;20445;-82
2023/11/17 14:52:04;;;;;;;3.40;2.70;;;23.50;65.50;;;;;;5046344;28;20556;-82
2023/11/17 14:57:53;;;;;;;4.50;2.47;;;23.40;65.30;;;;;;5040113;28;20820;-82
2023/11/17 15:00:23;;;;;;;2.93;2.73;;;23.30;65.50;;;;;;5047092;28;20434;-83
2023/11/17 15:02:52;;;;;;;5.07;2.83;;;23.30;65.50;;;;;;5040509;28;20980;-82
2023/11/17 15:05:20;;;;;;;2.90;2.60;;;23.30;65.40;;;;;;5038280;28;20548;-81
2023/11/17 15:07:47;;;;;;;6.13;2.43;;;23.30;66.40;;;;;;5051256;28;20454;-81
2023/11/17 15:10:16;;;;;;;3.37;2.60;;;23.30;65.70;;;;;;5038629;28;20437;-81
2023/11/17 15:12:45;;;;;;;4.77;2.60;;;23.30;65.70;;;;;;5108750;22;20474;-81
2023/11/17 15:15:24;;;;;;;3.77;2.50;;;23.30;65.60;;;;;;5036785;28;20446;-82
2023/11/17 15:17:54;;;;;;;3.30;2.77;;;23.20;65.60;;;;;;5038907;28;20461;-82
2023/11/17 15:20:23;;;;;;;3.00;2.80;;;23.20;65.30;;;;;;5141014;23;20418;-81
2023/11/17 15:52:34;;;;;;;4.17;3.77;;;23.00;65.50;;;;;;5480470;22;20569;-85
2023/11/17 15:55:01;;;;;;;7.00;4.77;;;23.00;64.90;;;;;;5063493;28;20923;-82
2023/11/17 15:57:29;;;;;;;14.20;11.97;;;23.00;64.10;;;;;;5066233;28;20445;-81
2023/11/17 15:59:56;;;;;;;13.10;9.80;;;22.90;60.60;;;;;;5069291;28;20447;-82
2023/11/17 16:02:23;;;;;;;11.40;7.87;;;22.80;60.90;;;;;;5065488;28;20480;-82
2023/11/17 16:04:50;;;;;;;7.53;5.97;;;22.70;62.40;;;;;;5064886;28;20481;-82
2023/11/17 16:07:18;;;;;;;9.10;5.33;;;22.70;63.80;;;;;;5067833;28;20439;-83
2023/11/17 16:09:46;;;;;;;7.27;4.90;;;22.70;64.20;;;;;;5065092;28;20458;-83